Current Conditions
Rain
Conditions



Pressure
1011.85 (hPa) - 29.88 (inHG)
Visibility

9.7 (km) - 6.0 (miles)
Temperature
4  °C
Temperature
3  °C
Dewpoint
93  %
 Humidity
Wind Speed
21  km/h
11  kts
13  mph
5.8  m/s
Wind Direction
N
45°
E
90°
135°
S
180°
225°
W
270°
315°
 230°

South West
Airport Data
LELN
León Airport
Metar :LELN 242200Z AUTO 23011KT 200V260 9999 -RA BKN019 BKN029 04/03 Q1012
Sat 24th February 23:00 pm
Raw Metar Info
Raw METAR is the most common format in the world for the transmission of observational weather data. It is highly standardized through the International Civil Aviation Organization (ICAO), which allows it to be understood throughout most of the world.
API Info
Data Provided by
https://www.checkwx.com/weather/LELN

Aviation Weather providing METAR, TAF, AIRMET, SIGMET and OUTLOOK Weather Reports
© Info
CSS/SVG/PHP scripts were developed by weather34 for use in the weather34 template © 2015-2024

Guide Info provided by Metar-Wikipedia